KSVN/SVN METAR and TAF weather

Enter ICAO airport designator
Station Type Date Time Source
KSVN METAR 2022/07/01 00:56 UTC NOAA

KSVN 010056Z AUTO 09006KT 10SM FEW022 FEW120 26/24 A3010 RMK AO2 RAB41E46 SLP196 P0000 T02550239 $


Station Type Date Time Source
KSVN Decoded METAR 2022/07/01 00:56 UTC NOAA

Hunter U. S. Army Airfield , GA, United States (KSVN) 32-01N 081-09W
Jun 30, 2022 - 08:56 PM EDT / 2022.07.01 0056 UTC
Wind: from the E (090 degrees) at 7 MPH (6 KT):0
Visibility: 10 mile(s):0
Sky conditions: mostly clear
Precipitation last hour: A trace
Temperature: 77.9 F (25.5 C)
Dew Point: 75.0 F (23.9 C)
Relative Humidity: 90%
Pressure (altimeter): 30.1 in. Hg (1019 hPa)
ob: KSVN 010056Z AUTO 09006KT 10SM FEW022 FEW120 26/24 A3010 RMK AO2 RAB41E46 SLP196 P0000 T02550239
cycle: 1

Station Type Date Time Source
KSVN TAF 2022/06/30 20:17 UTC NOAA

TAF KSVN 302000Z 3020/0202 03012KT 9999 SCT030 QNH3005INS
TEMPO 3020/3022 VRB15G25KT 8000 -TSRA BKN020CB OVC028
BECMG 0100/0101 VRB06KT 8000 BR BKN019 QNH3006INS
BECMG 0104/0105 VRB06KT 8000 -SHRA BKN020 QNH3001INS
TEMPO 0116/0122 VRB25G35KT 8000 -TSRA BKN019CB OVC030 TX32/0120Z TN24/0110Z

Example: see airport list